Time;durP1;ratioP1;P1;durP2;ratioP2;P2;SDS_P1;SDS_P2;PMS_P1;PMS_P2;Temp;Humidity;BMP_temperature;BMP_pressure;BME280_temperature;BME280_humidity;BME280_pressure;Samples;Min_cycle;Max_cycle;Signal;HPM_P1;HPM_P2
2022/05/11 00:00:27;;;;;;;18.80;9.93;;;9.90;99.90;;;;;;5051292;28;20181;-55
2022/05/11 00:02:53;;;;;;;16.10;9.37;;;9.80;99.90;;;;;;5051399;28;20228;-53
2022/05/11 00:05:19;;;;;;;15.90;9.10;;;9.70;99.90;;;;;;5051972;28;20570;-55
2022/05/11 00:07:45;;;;;;;18.37;8.97;;;9.80;99.90;;;;;;5051130;28;20189;-50
2022/05/11 00:10:13;;;;;;;18.50;8.83;;;9.80;99.90;;;;;;5050819;28;20193;-54
2022/05/11 00:12:42;;;;;;;21.37;8.27;;;9.70;99.90;;;;;;5051620;28;20182;-53
2022/05/11 00:15:10;;;;;;;17.07;8.90;;;9.70;99.90;;;;;;5051358;28;20190;-54
2022/05/11 00:17:36;;;;;;;17.93;8.87;;;9.80;99.90;;;;;;5051634;28;20192;-53
2022/05/11 00:20:06;;;;;;;22.53;9.43;;;9.70;99.90;;;;;;5051344;28;20190;-52
2022/05/11 00:22:36;;;;;;;20.47;9.37;;;9.70;99.90;;;;;;5051596;28;20171;-53
2022/05/11 00:25:05;;;;;;;19.40;9.30;;;9.80;99.90;;;;;;5050735;28;20240;-56
2022/05/11 00:27:31;;;;;;;14.53;8.60;;;9.80;99.90;;;;;;5051396;28;20185;-55
2022/05/11 00:29:57;;;;;;;15.40;8.67;;;9.80;99.90;;;;;;5051079;28;20276;-55
2022/05/11 00:32:25;;;;;;;20.53;9.83;;;9.70;99.90;;;;;;5051568;28;20170;-54
2022/05/11 00:34:52;;;;;;;15.87;9.27;;;9.60;99.90;;;;;;5053476;28;20202;-54
2022/05/11 00:37:18;;;;;;;19.23;8.93;;;9.60;99.90;;;;;;5055669;28;20182;-55
2022/05/11 00:39:44;;;;;;;18.57;8.37;;;9.60;99.90;;;;;;5055254;28;20242;-55
2022/05/11 00:42:10;;;;;;;18.83;9.13;;;9.60;99.90;;;;;;5055412;28;20264;-55
2022/05/11 00:44:36;;;;;;;16.33;8.90;;;9.60;99.90;;;;;;5055058;28;20542;-54
2022/05/11 00:47:07;;;;;;;16.33;8.70;;;9.50;99.90;;;;;;5054874;28;20264;-53
2022/05/11 00:49:44;;;;;;;17.50;8.80;;;9.30;99.90;;;;;;5055010;28;20623;-52
2022/05/11 00:52:20;;;;;;;20.67;8.83;;;9.20;99.90;;;;;;5055262;28;20168;-52
2022/05/11 00:54:59;;;;;;;21.03;9.97;;;9.10;99.90;;;;;;5054604;28;20160;-54
2022/05/11 00:57:32;;;;;;;21.47;9.63;;;9.00;99.90;;;;;;5055087;28;20551;-53
2022/05/11 00:59:59;;;;;;;19.70;10.10;;;8.90;99.90;;;;;;5054896;28;20637;-55
2022/05/11 01:02:26;;;;;;;20.47;10.23;;;8.80;99.90;;;;;;5054901;28;20649;-53
2022/05/11 01:04:56;;;;;;;20.87;10.37;;;8.60;99.90;;;;;;5054570;28;20176;-54
2022/05/11 01:07:22;;;;;;;19.17;9.63;;;8.50;99.90;;;;;;5054773;28;20663;-51
2022/05/11 01:09:48;;;;;;;20.07;10.27;;;8.40;99.90;;;;;;5054409;28;20260;-52
2022/05/11 01:12:17;;;;;;;24.23;10.30;;;8.30;99.90;;;;;;5054733;28;20250;-53
2022/05/11 01:14:50;;;;;;;20.17;10.03;;;8.30;99.90;;;;;;5054220;28;20310;-61
2022/05/11 01:17:18;;;;;;;19.57;9.87;;;8.30;99.90;;;;;;5054414;28;20171;-52
2022/05/11 01:19:46;;;;;;;24.00;9.47;;;8.30;99.90;;;;;;5054056;28;20604;-56
2022/05/11 01:22:19;;;;;;;19.70;8.87;;;8.30;99.90;;;;;;5054134;28;20197;-52
2022/05/11 01:24:47;;;;;;;14.60;8.07;;;8.40;99.90;;;;;;5053851;28;20249;-54
2022/05/11 01:27:29;;;;;;;13.43;7.60;;;8.50;99.90;;;;;;5054575;28;20587;-52
2022/05/11 01:30:06;;;;;;;15.17;8.13;;;8.70;99.90;;;;;;5053867;28;20168;-51
2022/05/11 01:32:32;;;;;;;20.10;7.33;;;8.90;99.90;;;;;;5054374;28;20183;-53
2022/05/11 01:35:16;;;;;;;14.00;7.33;;;9.00;99.90;;;;;;5053810;28;20185;-54
2022/05/11 01:37:54;;;;;;;23.40;7.73;;;9.10;99.90;;;;;;5054268;28;20229;-52
2022/05/11 01:40:20;;;;;;;19.87;9.10;;;9.10;99.90;;;;;;5054243;28;20248;-54
2022/05/11 01:42:49;;;;;;;20.77;9.57;;;9.10;99.90;;;;;;5054107;28;20527;-54
2022/05/11 01:45:15;;;;;;;25.57;10.10;;;9.10;99.90;;;;;;5053559;28;20214;-52
2022/05/11 01:47:41;;;;;;;26.87;10.77;;;9.00;99.90;;;;;;5054127;28;20586;-54
2022/05/11 01:50:07;;;;;;;23.07;9.57;;;8.90;99.90;;;;;;5053629;28;20329;-55
2022/05/11 01:52:33;;;;;;;24.07;9.23;;;8.90;99.90;;;;;;5053966;28;20657;-52
2022/05/11 01:54:59;;;;;;;14.00;7.33;;;8.90;99.90;;;;;;5053716;28;20184;-50
2022/05/11 01:57:24;;;;;;;14.13;7.57;;;8.90;99.90;;;;;;5054055;28;20197;-53
2022/05/11 01:59:50;;;;;;;18.20;7.60;;;9.00;99.90;;;;;;5053624;28;20230;-56
2022/05/11 02:02:16;;;;;;;13.63;8.40;;;9.00;99.90;;;;;;5053780;28;20639;-54
2022/05/11 02:10:10;;;;;;;18.80;8.77;;;8.90;99.90;;;;;;5053460;28;20267;-53
2022/05/11 02:12:36;;;;;;;17.63;7.97;;;8.90;99.90;;;;;;5053683;28;20250;-54
2022/05/11 02:15:04;;;;;;;16.60;8.80;;;8.90;99.90;;;;;;5053143;28;20254;-54
2022/05/11 02:17:29;;;;;;;12.97;7.17;;;8.80;99.90;;;;;;5053225;28;20180;-54
2022/05/11 02:19:55;;;;;;;14.63;8.57;;;8.80;99.90;;;;;;5052885;28;20187;-54
2022/05/11 02:22:21;;;;;;;18.97;8.10;;;8.80;99.90;;;;;;5053201;28;20266;-56
2022/05/11 02:24:47;;;;;;;15.67;8.03;;;8.80;99.90;;;;;;5052939;28;20289;-52
2022/05/11 02:27:13;;;;;;;17.37;7.37;;;8.80;99.90;;;;;;5053298;28;20178;-54
2022/05/11 02:29:38;;;;;;;16.47;7.67;;;8.80;99.90;;;;;;5053046;28;20648;-52
2022/05/11 02:32:04;;;;;;;19.77;7.23;;;8.80;99.90;;;;;;5052742;28;20179;-53
2022/05/11 02:37:14;;;;;;;17.57;6.53;;;8.80;99.90;;;;;;5053171;28;20178;-52
2022/05/11 02:39:40;;;;;;;14.90;7.27;;;8.70;99.90;;;;;;5052919;28;20176;-55
2022/05/11 02:42:06;;;;;;;14.63;6.50;;;8.70;99.90;;;;;;5053071;28;20189;-52
2022/05/11 02:44:31;;;;;;;11.03;6.33;;;8.70;99.90;;;;;;5052829;28;20188;-53
2022/05/11 02:46:57;;;;;;;13.60;6.47;;;8.70;99.90;;;;;;5052385;28;20619;-51
2022/05/11 02:49:23;;;;;;;14.80;5.97;;;8.80;99.90;;;;;;5052530;28;20321;-54
2022/05/11 02:51:49;;;;;;;11.60;6.20;;;8.70;99.90;;;;;;5052533;28;20183;-55
2022/05/11 02:54:15;;;;;;;13.70;6.97;;;8.70;99.90;;;;;;5052509;28;20630;-53
2022/05/11 02:56:41;;;;;;;9.97;6.23;;;8.60;99.90;;;;;;5052045;28;20179;-55
2022/05/11 02:59:07;;;;;;;13.93;6.23;;;8.60;99.90;;;;;;5052152;28;20193;-57
2022/05/11 03:01:33;;;;;;;20.13;6.70;;;8.60;99.90;;;;;;5052349;28;20183;-52
2022/05/11 03:03:59;;;;;;;12.13;6.07;;;8.60;99.90;;;;;;5052228;28;20589;-51
2022/05/11 03:06:25;;;;;;;18.23;6.13;;;8.60;99.90;;;;;;5052254;28;20205;-53
2022/05/11 03:08:51;;;;;;;11.27;5.67;;;8.60;99.90;;;;;;5051940;28;20195;-54
2022/05/11 03:11:17;;;;;;;11.33;6.10;;;8.70;99.90;;;;;;5052597;28;20244;-51
2022/05/11 03:13:42;;;;;;;14.13;6.17;;;8.80;99.90;;;;;;5052594;28;20259;-53
2022/05/11 03:16:08;;;;;;;12.70;6.37;;;8.80;99.90;;;;;;5051805;28;20300;-59
2022/05/11 03:18:34;;;;;;;10.77;6.10;;;8.80;99.90;;;;;;5051905;28;20183;-53
2022/05/11 03:21:00;;;;;;;15.10;6.07;;;8.90;99.90;;;;;;5051450;28;20508;-55
2022/05/11 03:23:27;;;;;;;12.93;5.83;;;9.10;99.90;;;;;;5051545;28;20235;-53
2022/05/11 03:25:53;;;;;;;16.93;6.70;;;9.20;99.90;;;;;;5051560;28;20212;-54
2022/05/11 03:28:19;;;;;;;17.73;6.50;;;9.30;99.90;;;;;;5051593;28;20181;-56
2022/05/11 03:30:45;;;;;;;14.90;6.50;;;9.40;99.90;;;;;;5051449;28;20352;-61
2022/05/11 03:35:55;;;;;;;13.57;5.90;;;9.50;99.90;;;;;;5051415;28;20178;-54
2022/05/11 03:38:21;;;;;;;17.33;6.30;;;9.60;99.90;;;;;;5051522;28;20190;-56
2022/05/11 03:40:46;;;;;;;13.13;5.97;;;9.70;99.90;;;;;;5051236;28;20186;-55
2022/05/11 03:43:12;;;;;;;18.10;6.83;;;9.80;99.90;;;;;;5051457;28;20181;-54
2022/05/11 03:45:38;;;;;;;15.43;8.03;;;10.00;99.90;;;;;;5051299;28;20205;-53
2022/05/11 03:48:04;;;;;;;115.50;16.60;;;10.20;99.90;;;;;;5051212;28;20221;-53
2022/05/11 03:50:31;;;;;;;29.13;12.10;;;10.30;99.90;;;;;;5051272;28;20201;-48
2022/05/11 03:52:58;;;;;;;32.77;11.73;;;10.30;99.90;;;;;;5051285;28;20675;-53
2022/05/11 03:55:26;;;;;;;20.17;8.67;;;10.30;99.90;;;;;;5051154;28;20624;-55
2022/05/11 03:57:51;;;;;;;17.90;9.87;;;10.30;99.90;;;;;;5049491;28;20561;-52
2022/05/11 04:00:21;;;;;;;15.53;8.00;;;10.40;99.90;;;;;;5050015;28;20229;-52
2022/05/11 04:02:47;;;;;;;21.03;8.93;;;10.60;99.90;;;;;;5050866;28;20253;-66
2022/05/11 04:05:14;;;;;;;24.27;8.70;;;10.70;99.90;;;;;;5051657;28;20662;-53
2022/05/11 04:07:41;;;;;;;25.73;8.87;;;10.70;99.90;;;;;;5051159;28;20243;-53
2022/05/11 04:10:09;;;;;;;27.50;9.17;;;10.70;99.90;;;;;;5054062;28;20392;-53
2022/05/11 04:12:34;;;;;;;14.97;8.30;;;10.60;99.90;;;;;;5055378;28;20255;-53
2022/05/11 04:15:01;;;;;;;15.70;7.37;;;10.70;99.90;;;;;;5055285;28;20187;-54
2022/05/11 04:17:26;;;;;;;21.13;7.83;;;10.70;99.90;;;;;;5055288;28;20273;-56
2022/05/11 04:19:53;;;;;;;26.37;7.73;;;10.80;99.90;;;;;;5054921;28;20265;-54
2022/05/11 04:22:19;;;;;;;19.13;8.03;;;10.90;99.90;;;;;;5054911;28;20183;-56
2022/05/11 04:24:45;;;;;;;20.00;6.93;;;11.00;99.90;;;;;;5054896;28;20235;-55
2022/05/11 04:27:11;;;;;;;17.27;8.33;;;11.00;99.90;;;;;;5054243;28;20218;-56
2022/05/11 04:29:38;;;;;;;19.80;7.70;;;11.00;99.90;;;;;;5053276;28;20183;-53
2022/05/11 04:32:04;;;;;;;17.07;7.50;;;11.00;99.90;;;;;;5054158;28;20575;-57
2022/05/11 04:34:30;;;;;;;19.37;7.37;;;11.00;99.90;;;;;;5053778;28;20180;-57
2022/05/11 04:36:56;;;;;;;17.17;7.40;;;11.10;99.90;;;;;;5053666;28;20234;-57
2022/05/11 04:39:21;;;;;;;25.90;7.27;;;11.20;99.90;;;;;;5053445;28;20191;-53
2022/05/11 04:41:47;;;;;;;14.00;6.73;;;11.20;99.90;;;;;;5054413;28;20176;-54
2022/05/11 04:44:13;;;;;;;14.07;6.47;;;11.30;99.90;;;;;;5051516;28;20598;-54
2022/05/11 04:46:39;;;;;;;14.73;6.83;;;11.30;99.90;;;;;;5043206;28;20229;-53
2022/05/11 04:49:19;;;;;;;27.93;7.87;;;11.40;99.90;;;;;;5050879;28;20208;-51
2022/05/11 04:51:50;;;;;;;14.80;6.50;;;11.50;99.90;;;;;;5051005;28;20242;-57
2022/05/11 04:54:16;;;;;;;11.90;7.13;;;11.60;99.90;;;;;;5045396;28;20193;-56
2022/05/11 04:56:42;;;;;;;10.87;6.70;;;11.60;99.90;;;;;;5047861;28;20212;-56
2022/05/11 04:59:09;;;;;;;16.87;6.40;;;11.70;99.90;;;;;;5042744;28;20264;-61
2022/05/11 05:01:36;;;;;;;12.67;6.20;;;11.80;99.90;;;;;;5036787;28;20224;-54
2022/05/11 05:04:02;;;;;;;18.80;8.00;;;11.80;99.90;;;;;;5049612;28;20199;-55
2022/05/11 05:06:32;;;;;;;16.40;7.07;;;11.90;99.90;;;;;;5053923;28;20209;-55
2022/05/11 05:09:03;;;;;;;18.40;7.60;;;12.00;99.90;;;;;;5041312;28;20198;-55
2022/05/11 05:11:29;;;;;;;24.97;8.23;;;12.10;99.90;;;;;;5053191;28;20275;-59
2022/05/11 05:13:55;;;;;;;21.13;9.13;;;12.30;99.90;;;;;;5053369;28;20226;-56
2022/05/11 05:16:20;;;;;;;23.73;9.63;;;12.50;99.90;;;;;;5053072;28;20192;-53
2022/05/11 05:18:46;;;;;;;13.60;5.73;;;12.60;99.90;;;;;;5053410;28;20202;-57
2022/05/11 05:21:12;;;;;;;17.87;5.77;;;12.60;99.90;;;;;;5051715;28;20190;-56
2022/05/11 05:23:38;;;;;;;9.30;5.20;;;12.70;99.90;;;;;;5040945;28;20233;-56
2022/05/11 05:26:03;;;;;;;14.53;5.73;;;12.80;99.90;;;;;;5051320;28;20238;-54
2022/05/11 05:31:17;;;;;;;43.40;17.33;;;12.80;99.90;;;;;;5052955;28;20196;-53
2022/05/11 05:33:43;;;;;;;18.83;6.70;;;13.00;99.90;;;;;;5053517;28;20574;-59
2022/05/11 05:36:10;;;;;;;14.13;7.03;;;13.00;99.90;;;;;;5052901;28;20552;-60
2022/05/11 05:38:38;;;;;;;19.83;7.23;;;13.10;99.90;;;;;;5053362;28;20184;-60
2022/05/11 05:41:09;;;;;;;17.47;6.00;;;13.20;99.90;;;;;;5052538;28;20247;-62
2022/05/11 05:43:35;;;;;;;19.30;6.77;;;13.30;99.90;;;;;;5055208;28;20283;-55
2022/05/11 05:46:00;;;;;;;22.70;7.03;;;13.30;99.90;;;;;;5057617;28;20233;-55
2022/05/11 05:48:26;;;;;;;18.60;7.43;;;13.30;99.90;;;;;;5046003;28;20579;-56
2022/05/11 05:50:52;;;;;;;22.60;8.03;;;13.50;99.90;;;;;;5043192;28;20256;-54
2022/05/11 05:53:21;;;;;;;13.60;5.70;;;13.70;99.90;;;;;;5052752;28;20372;-51
2022/05/11 05:55:50;;;;;;;15.93;5.20;;;13.80;99.90;;;;;;5051702;28;20190;-57
2022/05/11 05:58:16;;;;;;;12.23;5.40;;;14.00;98.80;;;;;;5051406;28;20226;-55
2022/05/11 06:00:43;;;;;;;12.27;4.70;;;14.10;97.20;;;;;;5052052;28;20201;-56
2022/05/11 06:03:09;;;;;;;14.40;5.63;;;14.30;97.70;;;;;;5052437;28;20700;-56
2022/05/11 06:05:35;;;;;;;17.77;5.73;;;14.40;97.80;;;;;;5051709;28;20206;-54
2022/05/11 06:08:01;;;;;;;29.10;6.53;;;14.50;97.00;;;;;;5043247;28;20597;-58
2022/05/11 06:10:26;;;;;;;15.13;6.87;;;14.50;97.40;;;;;;5050557;28;20203;-57
2022/05/11 06:12:53;;;;;;;34.27;8.97;;;14.70;98.60;;;;;;5048650;28;20183;-61
2022/05/11 06:15:19;;;;;;;31.73;9.27;;;14.90;99.60;;;;;;5050743;28;20182;-57
2022/05/11 06:17:45;;;;;;;19.53;6.53;;;15.00;99.60;;;;;;5049252;28;20585;-57
2022/05/11 06:20:12;;;;;;;24.30;6.67;;;15.10;99.50;;;;;;5050536;28;20658;-56
2022/05/11 06:22:38;;;;;;;33.83;7.50;;;15.30;99.00;;;;;;5051050;28;20209;-59
2022/05/11 06:25:05;;;;;;;15.40;5.97;;;15.40;98.10;;;;;;5052122;28;20247;-53
2022/05/11 06:27:31;;;;;;;14.70;5.70;;;15.40;97.20;;;;;;5052163;28;20193;-56
2022/05/11 06:29:59;;;;;;;19.00;6.60;;;15.50;96.80;;;;;;5052072;28;20179;-57
2022/05/11 06:32:25;;;;;;;30.73;7.53;;;15.60;95.90;;;;;;5050128;28;20261;-61
2022/05/11 06:34:53;;;;;;;19.20;6.00;;;15.70;95.80;;;;;;5046551;28;20641;-52
2022/05/11 06:37:20;;;;;;;18.47;5.97;;;15.70;95.40;;;;;;5050934;28;20272;-54
2022/05/11 06:39:47;;;;;;;14.63;5.30;;;15.80;95.00;;;;;;5051916;28;20209;-56
2022/05/11 06:42:13;;;;;;;16.43;5.47;;;15.80;94.00;;;;;;5049453;28;20672;-56
2022/05/11 06:44:40;;;;;;;22.80;6.70;;;15.90;94.10;;;;;;5049786;28;20239;-55
2022/05/11 06:47:06;;;;;;;19.53;6.20;;;16.00;93.40;;;;;;5049409;28;20686;-57
2022/05/11 06:49:32;;;;;;;12.17;4.70;;;16.10;93.60;;;;;;5049038;28;20348;-57
2022/05/11 06:51:58;;;;;;;19.70;6.20;;;16.20;93.20;;;;;;5050108;28;20174;-55
2022/05/11 06:59:54;;;;;;;26.13;7.10;;;16.30;92.00;;;;;;5049606;28;20371;-51
2022/05/11 07:02:20;;;;;;;18.23;6.23;;;16.50;91.60;;;;;;5049208;28;20208;-57
2022/05/11 07:04:48;;;;;;;16.33;6.23;;;16.70;91.30;;;;;;5048670;28;20274;-59
2022/05/11 07:07:14;;;;;;;14.17;5.30;;;16.70;90.80;;;;;;5049172;28;20198;-56
2022/05/11 07:09:40;;;;;;;12.87;4.90;;;16.70;88.00;;;;;;5051479;28;20231;-56
2022/05/11 07:12:32;;;;;;;11.93;4.43;;;16.70;87.40;;;;;;5051034;28;20210;-56
2022/05/11 07:14:59;;;;;;;18.40;6.00;;;16.70;86.50;;;;;;5051092;28;20289;-59
2022/05/11 07:17:42;;;;;;;16.73;5.23;;;16.80;86.50;;;;;;5051071;28;20647;-52
2022/05/11 07:20:10;;;;;;;17.67;5.53;;;16.90;84.80;;;;;;5050700;28;20571;-55
2022/05/11 07:22:36;;;;;;;13.67;4.30;;;17.00;82.50;;;;;;5049622;28;20185;-54
2022/05/11 07:25:02;;;;;;;9.80;3.50;;;17.10;76.40;;;;;;5050765;28;20607;-54
2022/05/11 07:27:28;;;;;;;31.03;4.37;;;17.20;68.60;;;;;;5051549;28;20643;-54
2022/05/11 07:29:54;;;;;;;11.90;2.97;;;17.40;64.30;;;;;;5050958;28;20352;-55
2022/05/11 07:32:22;;;;;;;13.43;4.17;;;17.50;65.30;;;;;;5050422;28;20629;-55
2022/05/11 07:34:49;;;;;;;16.87;4.87;;;17.70;66.00;;;;;;5050534;28;20559;-56
2022/05/11 07:37:15;;;;;;;11.87;4.33;;;17.90;65.00;;;;;;5048991;28;20563;-54
2022/05/11 07:39:41;;;;;;;19.27;4.27;;;18.00;63.20;;;;;;5051227;28;20181;-54
2022/05/11 07:42:07;;;;;;;12.13;3.73;;;18.10;63.80;;;;;;5050594;28;20175;-55
2022/05/11 07:44:33;;;;;;;14.00;4.50;;;18.30;63.50;;;;;;5048865;28;20197;-55
2022/05/11 07:46:59;;;;;;;10.00;3.53;;;18.40;62.50;;;;;;5048758;28;20206;-54
2022/05/11 07:49:25;;;;;;;19.93;3.83;;;18.30;62.00;;;;;;5050216;28;20217;-53
2022/05/11 07:51:52;;;;;;;13.30;4.10;;;18.30;59.10;;;;;;5051167;28;20218;-59
2022/05/11 07:54:19;;;;;;;14.03;3.50;;;18.50;58.60;;;;;;5050427;28;20263;-56
2022/05/11 08:02:13;;;;;;;8.00;3.60;;;18.90;57.90;;;;;;5050482;28;20185;-57
2022/05/11 08:04:39;;;;;;;8.15;3.58;;;19.00;58.30;;;;;;5050484;28;20628;-57
2022/05/11 08:07:05;;;;;;;8.27;3.45;;;18.90;57.50;;;;;;5050502;28;20424;-53
2022/05/11 08:09:31;;;;;;;12.02;3.50;;;19.00;57.90;;;;;;5050357;28;20683;-51
2022/05/11 08:11:57;;;;;;;7.57;3.70;;;19.00;57.10;;;;;;5049502;28;20272;-51
2022/05/11 08:14:23;;;;;;;11.90;4.45;;;19.00;56.90;;;;;;5049989;28;20593;-55
2022/05/11 08:16:52;;;;;;;10.00;4.50;;;19.20;57.10;;;;;;5050383;28;20186;-61
2022/05/11 08:19:23;;;;;;;10.23;3.50;;;19.30;56.60;;;;;;5050248;28;20190;-51
2022/05/11 08:21:50;;;;;;;14.75;4.10;;;19.40;56.90;;;;;;5050118;28;20175;-53
2022/05/11 08:24:16;;;;;;;11.95;4.03;;;19.40;57.30;;;;;;5049847;28;20687;-55
2022/05/11 08:26:43;;;;;;;25.42;5.45;;;19.20;56.90;;;;;;5050415;28;20249;-59
2022/05/11 08:29:09;;;;;;;13.25;3.90;;;19.30;58.00;;;;;;5050119;28;20193;-56
2022/05/11 08:34:19;;;;;;;12.82;4.80;;;19.40;58.10;;;;;;5049831;28;20578;-56
2022/05/11 08:36:45;;;;;;;13.00;3.53;;;19.50;57.20;;;;;;5050284;28;20190;-55
2022/05/11 08:39:12;;;;;;;13.05;4.53;;;19.60;54.90;;;;;;5049557;28;20512;-53
2022/05/11 08:41:48;;;;;;;15.38;4.22;;;19.60;54.30;;;;;;5049315;28;20182;-57
2022/05/11 08:44:18;;;;;;;14.52;4.97;;;19.70;53.00;;;;;;5048711;28;20709;-55
2022/05/11 08:46:57;;;;;;;14.57;3.40;;;19.80;52.50;;;;;;5049266;28;20233;-52
2022/05/11 08:49:59;;;;;;;17.13;3.20;;;19.80;52.40;;;;;;5049502;28;20178;-55
2022/05/11 08:52:47;;;;;;;9.95;3.47;;;19.70;52.90;;;;;;5049410;28;20632;-55
2022/05/11 08:55:51;;;;;;;11.98;3.97;;;19.80;53.40;;;;;;5050665;28;20175;-55
2022/05/11 08:58:33;;;;;;;11.80;3.70;;;20.10;54.00;;;;;;5053356;28;20220;-53
2022/05/11 09:00:59;;;;;;;12.90;4.10;;;20.10;54.70;;;;;;5052662;28;20269;-55
2022/05/11 09:03:38;;;;;;;11.85;4.38;;;20.20;53.50;;;;;;5052861;28;20186;-57
2022/05/11 09:06:10;;;;;;;27.67;5.07;;;20.30;53.90;;;;;;5053291;28;20248;-55
2022/05/11 09:08:38;;;;;;;16.92;4.30;;;20.30;53.40;;;;;;5053826;28;20636;-57
2022/05/11 09:11:06;;;;;;;11.55;3.63;;;20.40;53.00;;;;;;5052923;28;20297;-54
2022/05/11 09:13:35;;;;;;;6.65;2.45;;;20.50;53.40;;;;;;5053196;28;20175;-52
2022/05/11 09:16:06;;;;;;;8.60;2.60;;;20.20;55.80;;;;;;5053317;28;20193;-59
2022/05/11 09:18:31;;;;;;;10.25;2.50;;;19.90;56.90;;;;;;5052684;28;20179;-55
2022/05/11 09:21:00;;;;;;;7.70;3.13;;;19.80;57.60;;;;;;5053511;28;20247;-56
2022/05/11 09:23:32;;;;;;;7.88;3.13;;;19.70;57.20;;;;;;5053336;28;20280;-53
2022/05/11 09:26:02;;;;;;;11.50;2.90;;;19.60;57.00;;;;;;5053177;28;20289;-52
2022/05/11 09:28:33;;;;;;;8.90;2.60;;;19.70;56.70;;;;;;5053459;28;20186;-58
2022/05/11 09:31:07;;;;;;;12.77;3.95;;;19.90;56.00;;;;;;5052727;28;20190;-58
2022/05/11 09:33:38;;;;;;;12.80;2.50;;;20.00;55.30;;;;;;5052456;28;20190;-52
2022/05/11 09:36:04;;;;;;;5.57;2.25;;;20.10;54.40;;;;;;5052750;28;20270;-55
2022/05/11 09:38:41;;;;;;;8.05;2.50;;;20.10;52.50;;;;;;5052115;28;20626;-58
2022/05/11 09:41:19;;;;;;;10.55;2.40;;;20.10;52.80;;;;;;5050738;28;20262;-60
2022/05/11 09:43:58;;;;;;;3.50;1.83;;;20.00;52.10;;;;;;5049499;28;20265;-58
2022/05/11 09:46:26;;;;;;;6.45;2.20;;;19.90;51.80;;;;;;5050621;28;20281;-55
2022/05/11 09:49:09;;;;;;;6.82;2.90;;;20.10;52.30;;;;;;5051138;28;20182;-54
2022/05/11 09:51:50;;;;;;;7.68;2.42;;;20.10;52.70;;;;;;5051039;28;20502;-58
2022/05/11 09:54:24;;;;;;;6.57;1.95;;;20.30;52.60;;;;;;5050659;28;20216;-55
2022/05/11 09:57:16;;;;;;;8.57;2.30;;;20.20;49.00;;;;;;5052721;28;20220;-56
2022/05/11 09:59:43;;;;;;;5.07;2.35;;;20.40;49.40;;;;;;5052466;28;20249;-57
2022/05/11 10:02:31;;;;;;;8.07;2.92;;;20.40;47.60;;;;;;5052770;28;20183;-56
2022/05/11 10:05:19;;;;;;;12.05;2.45;;;20.30;48.30;;;;;;5051676;28;20174;-55
2022/05/11 10:07:59;;;;;;;7.03;2.13;;;20.30;48.90;;;;;;5051045;28;20648;-55
2022/05/11 10:10:43;;;;;;;6.25;2.50;;;20.70;48.90;;;;;;5051824;28;20248;-55
2022/05/11 10:13:30;;;;;;;11.23;2.33;;;20.80;47.40;;;;;;5052264;28;20213;-58
2022/05/11 10:22:13;;;;;;;9.20;2.55;;;20.90;45.50;;;;;;5052324;28;20197;-55
2022/05/11 10:25:00;;;;;;;8.95;2.40;;;20.90;45.80;;;;;;5051245;28;20230;-53
2022/05/11 10:27:29;;;;;;;5.40;2.47;;;20.90;46.30;;;;;;5051511;28;20281;-57
2022/05/11 10:30:05;;;;;;;9.77;2.70;;;21.00;46.70;;;;;;5051747;28;20186;-53
2022/05/11 10:33:05;;;;;;;10.45;2.60;;;21.00;46.30;;;;;;5051509;28;20174;-55
2022/05/11 10:36:16;;;;;;;8.95;2.70;;;21.20;46.60;;;;;;5051681;28;20178;-57
2022/05/11 10:39:06;;;;;;;3.78;2.30;;;21.30;45.60;;;;;;5051668;28;20170;-55
2022/05/11 10:41:35;;;;;;;7.97;3.20;;;21.50;45.60;;;;;;5051222;28;20171;-56
2022/05/11 10:44:18;;;;;;;6.97;2.60;;;21.60;46.00;;;;;;5051464;28;20217;-56
2022/05/11 10:47:01;;;;;;;8.20;2.90;;;21.60;45.60;;;;;;5049822;28;20202;-55
2022/05/11 10:49:45;;;;;;;15.68;5.47;;;21.80;45.40;;;;;;5051404;28;20646;-54
2022/05/11 10:52:10;;;;;;;7.80;3.03;;;22.00;45.40;;;;;;5049713;28;20608;-57
2022/05/11 10:54:48;;;;;;;8.32;3.15;;;22.20;45.50;;;;;;5050184;28;20289;-55
2022/05/11 10:57:17;;;;;;;12.90;3.03;;;22.50;45.50;;;;;;5051015;28;20179;-55
2022/05/11 10:59:52;;;;;;;8.13;3.50;;;22.60;43.80;;;;;;5050782;28;20170;-56
2022/05/11 11:02:36;;;;;;;5.82;2.63;;;22.80;45.00;;;;;;5051291;28;20174;-54
2022/05/11 11:05:02;;;;;;;10.88;3.08;;;22.80;44.10;;;;;;5051676;28;20173;-55
2022/05/11 11:07:31;;;;;;;3.60;2.45;;;23.10;44.30;;;;;;5050736;28;20225;-56
2022/05/11 11:10:15;;;;;;;4.22;2.58;;;23.20;44.80;;;;;;5050528;28;20174;-56
2022/05/11 11:13:03;;;;;;;6.25;2.35;;;23.40;44.00;;;;;;5050897;28;20265;-54
2022/05/11 11:15:34;;;;;;;5.07;2.08;;;23.70;41.70;;;;;;5049394;28;20247;-56
2022/05/11 11:18:03;;;;;;;7.82;2.38;;;23.80;40.80;;;;;;5050142;28;20281;-55
2022/05/11 11:20:34;;;;;;;10.45;2.67;;;24.50;40.80;;;;;;5050831;28;20185;-53
2022/05/11 11:23:12;;;;;;;6.03;2.30;;;24.80;40.10;;;;;;5051095;28;20163;-56
2022/05/11 11:25:51;;;;;;;7.13;2.50;;;25.90;38.50;;;;;;5051236;28;20229;-55
2022/05/11 11:28:18;;;;;;;4.80;2.10;;;26.90;35.70;;;;;;5050315;28;20181;-57
2022/05/11 11:30:59;;;;;;;11.13;2.75;;;27.90;35.30;;;;;;5051042;28;20224;-57
2022/05/11 11:33:25;;;;;;;10.40;3.13;;;29.80;34.40;;;;;;5050822;28;20178;-55
2022/05/11 11:36:00;;;;;;;7.85;3.20;;;30.80;33.70;;;;;;5051345;28;20212;-55
2022/05/11 11:38:49;;;;;;;10.95;2.80;;;31.90;33.40;;;;;;5051415;28;20181;-54
2022/05/11 11:41:28;;;;;;;8.32;2.67;;;33.10;31.00;;;;;;5051054;28;20182;-56
2022/05/11 11:43:56;;;;;;;8.65;2.33;;;32.60;29.80;;;;;;5050873;28;20640;-57
2022/05/11 11:46:38;;;;;;;12.43;3.53;;;32.80;29.40;;;;;;5051032;28;20307;-57
2022/05/11 11:49:11;;;;;;;7.75;2.25;;;33.60;29.70;;;;;;5051364;28;20729;-55
2022/05/11 11:51:58;;;;;;;15.00;3.22;;;34.20;28.60;;;;;;5051021;28;20189;-55
2022/05/11 11:54:29;;;;;;;5.47;2.60;;;35.00;27.80;;;;;;5050973;28;20261;-58
2022/05/11 11:56:57;;;;;;;7.75;2.42;;;34.90;26.50;;;;;;5050416;28;20276;-58
2022/05/11 11:59:23;;;;;;;11.13;2.42;;;34.00;27.00;;;;;;5050513;28;20193;-59
2022/05/11 12:01:52;;;;;;;12.90;3.03;;;34.30;28.30;;;;;;5050362;28;20216;-59
2022/05/11 12:04:34;;;;;;;5.45;2.40;;;34.90;28.00;;;;;;5050622;28;20170;-57
2022/05/11 12:15:34;;;;;;;5.50;2.10;;;36.60;26.70;;;;;;5050341;28;20176;-57
2022/05/11 12:18:02;;;;;;;6.55;2.53;;;36.50;26.00;;;;;;5050517;28;20181;-55
2022/05/11 12:20:42;;;;;;;13.45;3.33;;;35.30;26.00;;;;;;5048974;28;20212;-58
2022/05/11 12:23:29;;;;;;;8.13;2.95;;;34.80;26.90;;;;;;5050840;28;20221;-57
2022/05/11 12:25:58;;;;;;;9.00;2.17;;;35.70;27.00;;;;;;5050439;28;20232;-57
2022/05/11 12:28:43;;;;;;;10.38;2.72;;;36.60;25.00;;;;;;5050366;28;20655;-58
2022/05/11 12:31:21;;;;;;;10.52;2.30;;;36.70;25.10;;;;;;5054167;28;20166;-56
2022/05/11 12:33:53;;;;;;;7.00;2.60;;;36.80;25.20;;;;;;5054966;28;20170;-57
2022/05/11 12:36:37;;;;;;;5.25;2.10;;;36.70;25.90;;;;;;5054408;28;20273;-57
2022/05/11 12:39:04;;;;;;;5.20;2.42;;;37.10;25.10;;;;;;5053736;28;20166;-56
2022/05/11 12:41:31;;;;;;;5.45;2.40;;;37.90;24.50;;;;;;5053770;28;20288;-58
2022/05/11 12:44:12;;;;;;;7.10;2.80;;;38.40;24.00;;;;;;5052391;28;20674;-55
2022/05/11 12:46:42;;;;;;;10.07;4.22;;;38.60;24.10;;;;;;5054158;28;20250;-57
2022/05/11 12:49:14;;;;;;;5.72;2.38;;;38.20;23.60;;;;;;5054301;28;20182;-55
2022/05/11 12:51:55;;;;;;;38.03;4.47;;;38.10;23.90;;;;;;5054024;28;20185;-58
2022/05/11 12:54:27;;;;;;;11.77;2.70;;;39.40;23.60;;;;;;5053732;28;20177;-56
2022/05/11 12:57:02;;;;;;;4.15;2.00;;;39.80;23.00;;;;;;5053953;28;20177;-56
2022/05/11 12:59:30;;;;;;;12.45;3.42;;;39.40;23.30;;;;;;5053541;28;20169;-58
2022/05/11 13:02:21;;;;;;;7.28;2.70;;;40.10;23.00;;;;;;5051936;28;20177;-56
2022/05/11 13:04:53;;;;;;;13.93;3.08;;;40.60;22.90;;;;;;5053775;28;20234;-57
2022/05/11 13:07:42;;;;;;;8.98;4.63;;;40.40;22.90;;;;;;5053521;28;20208;-55
2022/05/11 13:10:15;;;;;;;4.97;2.30;;;40.10;23.20;;;;;;5052428;28;20181;-58
2022/05/11 13:12:42;;;;;;;7.07;2.50;;;40.10;22.50;;;;;;5053786;28;20252;-58
2022/05/11 13:15:08;;;;;;;5.25;2.55;;;40.10;22.70;;;;;;5052017;28;20221;-55
2022/05/11 13:17:46;;;;;;;3.67;1.90;;;38.10;22.80;;;;;;5053078;28;20186;-57
2022/05/11 13:20:17;;;;;;;2.70;1.80;;;36.20;23.50;;;;;;5053556;28;20182;-57
2022/05/11 13:22:52;;;;;;;8.65;3.05;;;36.50;23.70;;;;;;5053448;28;20341;-54
2022/05/11 13:25:38;;;;;;;7.88;2.47;;;38.00;23.80;;;;;;5053275;28;20165;-56
2022/05/11 13:28:21;;;;;;;9.02;2.78;;;39.30;23.20;;;;;;5052986;28;20252;-57
2022/05/11 13:30:48;;;;;;;20.77;3.70;;;40.10;22.90;;;;;;5053252;28;20181;-56
2022/05/11 13:33:35;;;;;;;12.75;2.70;;;40.90;22.40;;;;;;5053233;28;20177;-58
2022/05/11 13:36:36;;;;;;;7.68;2.20;;;41.00;22.80;;;;;;5053294;28;20181;-57
2022/05/11 13:39:28;;;;;;;8.57;2.70;;;40.30;22.60;;;;;;5026597;28;20238;-58